Time;durP1;ratioP1;P1;durP2;ratioP2;P2;SDS_P1;SDS_P2;PMS_P1;PMS_P2;Temp;Humidity;BMP_temperature;BMP_pressure;BME280_temperature;BME280_humidity;BME280_pressure;Samples;Min_cycle;Max_cycle;Signal;HPM_P1;HPM_P2
2020/12/26 00:00:36;;;;;;;5.13;4.53;;;2.70;99.90;;;;;;4936128;29;20307;-42
2020/12/26 00:03:04;;;;;;;5.65;4.15;;;2.70;99.90;;;;;;4936079;29;20299;-42
2020/12/26 00:05:31;;;;;;;4.20;3.80;;;2.70;99.90;;;;;;4935863;29;20312;-41
2020/12/26 00:07:59;;;;;;;5.13;4.70;;;2.70;99.90;;;;;;4935876;29;20271;-42
2020/12/26 00:10:26;;;;;;;6.00;5.20;;;2.80;99.90;;;;;;4936014;29;20247;-42
2020/12/26 00:12:54;;;;;;;4.87;4.37;;;2.80;99.90;;;;;;4935749;29;20220;-41
2020/12/26 00:15:21;;;;;;;5.23;4.67;;;2.80;99.90;;;;;;4936109;29;20262;-41
2020/12/26 00:17:49;;;;;;;4.77;4.27;;;2.80;99.90;;;;;;4935827;29;20263;-42
2020/12/26 00:20:18;;;;;;;4.90;3.97;;;2.70;99.90;;;;;;4935821;29;20623;-43
2020/12/26 00:22:45;;;;;;;4.40;3.78;;;2.70;99.90;;;;;;4935537;29;20291;-42
2020/12/26 00:25:13;;;;;;;6.07;4.43;;;2.70;99.90;;;;;;4935574;29;20643;-44
2020/12/26 00:27:40;;;;;;;4.80;4.10;;;2.60;99.90;;;;;;4935306;29;20327;-44
2020/12/26 00:30:08;;;;;;;5.03;3.40;;;2.60;99.90;;;;;;4935431;29;20754;-42
2020/12/26 00:32:35;;;;;;;4.97;3.63;;;2.60;99.90;;;;;;4935345;29;20247;-41
2020/12/26 00:35:02;;;;;;;4.63;3.70;;;2.60;99.90;;;;;;4935228;29;20271;-43
2020/12/26 00:37:29;;;;;;;4.20;3.90;;;2.60;99.90;;;;;;4935270;29;20221;-42
2020/12/26 00:39:56;;;;;;;5.97;4.80;;;2.50;99.90;;;;;;4935240;29;20212;-41
2020/12/26 00:42:23;;;;;;;5.55;4.15;;;2.40;99.90;;;;;;4935490;29;20311;-41
2020/12/26 00:44:50;;;;;;;4.60;4.20;;;2.40;99.90;;;;;;4935405;29;20310;-49
2020/12/26 00:47:18;;;;;;;5.28;4.00;;;2.30;99.90;;;;;;4935181;29;20318;-46
2020/12/26 00:49:44;;;;;;;4.40;4.00;;;2.20;99.90;;;;;;4935179;29;20234;-45
2020/12/26 00:52:12;;;;;;;5.93;4.93;;;2.10;99.90;;;;;;4935276;29;20208;-49
2020/12/26 00:54:40;;;;;;;5.13;4.63;;;2.10;99.90;;;;;;4934370;29;20243;-48
2020/12/26 00:57:07;;;;;;;7.93;6.07;;;2.00;99.90;;;;;;4935022;29;20299;-49
2020/12/26 00:59:34;;;;;;;5.95;5.35;;;2.00;99.90;;;;;;4935115;29;20222;-49
2020/12/26 01:02:01;;;;;;;9.50;6.90;;;2.00;99.90;;;;;;4935064;29;20243;-47
2020/12/26 01:04:29;;;;;;;8.05;6.50;;;1.90;99.90;;;;;;4934899;29;20291;-45
2020/12/26 01:06:57;;;;;;;8.23;6.33;;;1.90;99.90;;;;;;4935157;29;20319;-48
2020/12/26 01:09:24;;;;;;;6.90;6.30;;;1.90;99.90;;;;;;4935058;29;20306;-44
2020/12/26 01:11:51;;;;;;;6.90;6.20;;;1.90;99.90;;;;;;4935075;29;20216;-44
2020/12/26 01:14:18;;;;;;;6.87;6.17;;;1.90;99.90;;;;;;4934613;29;20785;-44
2020/12/26 01:16:49;;;;;;;6.37;5.33;;;1.90;99.90;;;;;;4934737;29;20208;-43
2020/12/26 01:19:17;;;;;;;6.20;5.60;;;1.90;99.90;;;;;;4935071;29;20271;-44
2020/12/26 01:21:49;;;;;;;7.80;5.93;;;1.90;99.90;;;;;;4935072;29;20613;-43
2020/12/26 01:24:17;;;;;;;6.57;5.90;;;1.80;99.90;;;;;;4935079;29;20295;-44
2020/12/26 01:26:46;;;;;;;6.90;6.17;;;1.80;99.90;;;;;;4934847;29;20327;-44
2020/12/26 01:29:13;;;;;;;6.67;6.00;;;1.70;99.90;;;;;;4934870;29;20389;-44
2020/12/26 01:31:40;;;;;;;7.50;6.80;;;1.70;99.90;;;;;;4935028;29;20589;-44
2020/12/26 01:34:07;;;;;;;6.90;6.03;;;1.70;99.90;;;;;;4934936;29;20306;-44
2020/12/26 01:36:37;;;;;;;7.30;6.23;;;1.70;99.90;;;;;;4934927;29;20240;-42
2020/12/26 01:39:05;;;;;;;7.63;6.40;;;1.60;99.90;;;;;;4934729;29;20216;-44
2020/12/26 01:41:33;;;;;;;6.87;5.87;;;1.60;99.90;;;;;;4934694;29;20231;-45
2020/12/26 01:44:02;;;;;;;7.53;6.23;;;1.60;99.90;;;;;;4934543;29;20711;-45
2020/12/26 01:46:30;;;;;;;8.00;6.23;;;1.50;99.90;;;;;;4934754;29;20405;-44
2020/12/26 01:48:59;;;;;;;6.10;5.60;;;1.50;99.90;;;;;;4934724;29;20220;-43
2020/12/26 01:51:30;;;;;;;6.07;5.20;;;1.40;99.90;;;;;;4934570;29;20208;-46
2020/12/26 01:53:57;;;;;;;7.37;5.40;;;1.40;99.90;;;;;;4934840;29;20239;-43
2020/12/26 01:56:26;;;;;;;6.37;5.77;;;1.40;99.90;;;;;;4934498;29;20722;-45
2020/12/26 01:58:53;;;;;;;6.77;5.37;;;1.40;99.90;;;;;;4934622;29;20258;-48
2020/12/26 02:01:31;;;;;;;6.60;5.97;;;1.30;99.90;;;;;;4934539;29;20222;-47
2020/12/26 02:03:59;;;;;;;8.10;5.10;;;1.40;99.90;;;;;;4934627;29;20215;-46
2020/12/26 02:06:30;;;;;;;6.00;5.47;;;1.30;99.90;;;;;;4935423;29;20327;-49
2020/12/26 02:08:59;;;;;;;7.13;6.17;;;1.20;99.90;;;;;;4938358;29;20212;-46
2020/12/26 02:11:28;;;;;;;7.33;6.50;;;1.20;99.90;;;;;;4938450;29;20219;-45
2020/12/26 02:13:56;;;;;;;7.03;6.33;;;1.10;99.90;;;;;;4938065;29;20707;-45
2020/12/26 02:16:23;;;;;;;6.37;5.77;;;1.20;99.90;;;;;;4938397;29;20247;-47
2020/12/26 02:18:51;;;;;;;6.90;5.77;;;1.10;99.90;;;;;;4938147;29;20208;-50
2020/12/26 02:21:22;;;;;;;6.80;6.20;;;1.10;99.90;;;;;;4938200;29;20223;-50
2020/12/26 02:23:51;;;;;;;10.37;7.20;;;1.00;99.90;;;;;;4938349;29;20216;-46
2020/12/26 02:26:28;;;;;;;7.17;6.47;;;1.00;99.90;;;;;;4937934;29;20216;-47
2020/12/26 02:28:55;;;;;;;8.73;6.47;;;1.00;99.90;;;;;;4937904;29;20218;-45
2020/12/26 02:31:22;;;;;;;6.10;5.50;;;1.00;99.90;;;;;;4937904;29;20303;-48
2020/12/26 02:33:50;;;;;;;8.40;6.53;;;1.10;99.90;;;;;;4937806;29;20529;-47
2020/12/26 02:36:17;;;;;;;6.63;6.00;;;1.10;99.90;;;;;;4937769;29;20242;-46
2020/12/26 02:38:44;;;;;;;9.67;7.40;;;1.00;99.90;;;;;;4937915;29;20236;-44
2020/12/26 02:41:13;;;;;;;9.70;6.73;;;1.00;99.90;;;;;;4937753;29;20220;-43
2020/12/26 02:43:41;;;;;;;9.00;6.27;;;1.00;99.90;;;;;;4937780;29;20216;-43
2020/12/26 02:46:08;;;;;;;6.97;6.27;;;1.00;99.90;;;;;;4937510;29;20237;-44
2020/12/26 02:48:36;;;;;;;7.37;6.67;;;0.90;99.90;;;;;;4937502;29;20223;-48
2020/12/26 02:51:04;;;;;;;7.90;6.73;;;0.90;99.90;;;;;;4937826;29;20223;-50
2020/12/26 02:53:31;;;;;;;7.17;6.43;;;0.90;99.90;;;;;;4937360;29;20287;-48
2020/12/26 02:55:58;;;;;;;7.67;6.87;;;0.90;99.90;;;;;;4937478;29;20227;-42
2020/12/26 02:58:26;;;;;;;6.37;5.77;;;0.90;99.90;;;;;;4920359;29;20227;-43
2020/12/26 03:00:53;;;;;;;7.20;6.30;;;0.90;99.90;;;;;;4937348;29;20315;-42
2020/12/26 03:03:20;;;;;;;8.30;6.40;;;0.80;99.90;;;;;;4937513;29;20256;-43
2020/12/26 03:05:47;;;;;;;6.67;6.03;;;0.80;99.90;;;;;;4937380;29;20590;-42
2020/12/26 03:08:13;;;;;;;6.50;5.67;;;0.80;99.90;;;;;;4937206;29;20236;-42
2020/12/26 03:10:40;;;;;;;7.13;6.43;;;0.80;99.90;;;;;;4937190;29;20250;-42
2020/12/26 03:13:07;;;;;;;8.77;6.10;;;0.80;99.90;;;;;;4937032;29;20354;-44
2020/12/26 03:15:36;;;;;;;7.83;6.40;;;0.80;99.90;;;;;;4937142;29;20224;-46
2020/12/26 03:18:03;;;;;;;7.03;6.33;;;0.90;99.90;;;;;;4936236;29;20307;-47
2020/12/26 03:20:30;;;;;;;7.47;6.67;;;0.80;99.90;;;;;;4937133;29;20216;-47
2020/12/26 03:22:58;;;;;;;7.10;6.10;;;0.80;99.90;;;;;;4936959;29;20259;-46
2020/12/26 03:25:25;;;;;;;7.00;6.30;;;0.70;99.90;;;;;;4936880;29;20247;-44
2020/12/26 03:27:52;;;;;;;7.20;5.70;;;0.70;99.90;;;;;;4936702;29;20691;-45
2020/12/26 03:30:19;;;;;;;6.47;5.73;;;0.70;99.90;;;;;;4936777;29;20218;-44
2020/12/26 03:32:47;;;;;;;9.10;6.97;;;0.60;99.90;;;;;;4937010;29;20295;-46
2020/12/26 03:35:14;;;;;;;7.13;6.33;;;0.60;99.90;;;;;;4936842;29;20295;-44
2020/12/26 03:37:41;;;;;;;6.80;5.97;;;0.60;99.90;;;;;;4936753;29;20298;-44
2020/12/26 03:40:09;;;;;;;7.87;7.07;;;0.70;99.90;;;;;;4936707;29;20611;-45
2020/12/26 03:42:37;;;;;;;6.90;6.20;;;0.70;99.90;;;;;;4936596;29;20583;-44
2020/12/26 03:45:04;;;;;;;7.40;6.23;;;0.60;99.90;;;;;;4936783;29;20212;-44
2020/12/26 03:47:32;;;;;;;10.87;7.07;;;0.70;99.90;;;;;;4936537;29;20360;-44
2020/12/26 03:50:00;;;;;;;7.37;6.60;;;0.60;99.90;;;;;;4936662;29;20431;-46
2020/12/26 03:52:27;;;;;;;8.27;6.50;;;0.60;99.90;;;;;;4936638;29;20275;-44
2020/12/26 03:54:54;;;;;;;8.00;6.87;;;0.60;99.90;;;;;;4936345;29;20347;-44
2020/12/26 03:57:21;;;;;;;6.63;5.77;;;0.70;99.90;;;;;;4936222;29;20324;-45
2020/12/26 03:59:48;;;;;;;6.80;5.83;;;0.60;99.90;;;;;;4936321;29;20712;-43
2020/12/26 04:02:15;;;;;;;10.53;6.77;;;0.70;99.90;;;;;;4936297;29;20219;-42
2020/12/26 04:04:42;;;;;;;7.37;6.67;;;0.70;99.90;;;;;;4936213;29;20258;-43
2020/12/26 04:07:10;;;;;;;8.53;7.17;;;0.70;99.90;;;;;;4935893;29;20315;-42
2020/12/26 04:09:37;;;;;;;8.17;6.50;;;0.80;99.90;;;;;;4935906;29;20302;-42
2020/12/26 04:12:04;;;;;;;8.00;6.80;;;0.80;99.90;;;;;;4936285;29;20208;-44
2020/12/26 04:14:32;;;;;;;7.07;6.20;;;0.80;99.90;;;;;;4935897;29;20246;-45
2020/12/26 04:17:00;;;;;;;7.87;6.47;;;0.90;99.90;;;;;;4936128;29;20234;-45
2020/12/26 04:19:27;;;;;;;8.80;6.87;;;0.90;99.90;;;;;;4936025;29;20350;-47
2020/12/26 04:21:55;;;;;;;6.90;6.20;;;0.90;99.90;;;;;;4935823;29;20227;-44
2020/12/26 04:24:23;;;;;;;7.43;6.67;;;0.90;99.90;;;;;;4935808;29;20275;-46
2020/12/26 04:26:51;;;;;;;8.10;6.07;;;0.90;99.90;;;;;;4935657;29;20715;-50
2020/12/26 04:29:21;;;;;;;7.40;6.60;;;0.90;99.90;;;;;;4935665;29;20298;-43
2020/12/26 04:31:51;;;;;;;6.17;5.60;;;0.90;99.90;;;;;;4935817;29;20238;-46
2020/12/26 04:34:19;;;;;;;8.27;6.10;;;0.90;99.90;;;;;;4935477;29;20607;-46
2020/12/26 04:36:46;;;;;;;7.73;6.53;;;0.80;99.90;;;;;;4935554;29;20267;-48
2020/12/26 04:39:13;;;;;;;6.97;6.23;;;0.70;99.90;;;;;;4935518;29;20220;-49
2020/12/26 04:41:42;;;;;;;7.33;6.07;;;0.70;99.90;;;;;;4935647;29;20220;-45
2020/12/26 04:44:11;;;;;;;7.10;6.33;;;0.60;99.90;;;;;;4935684;29;20328;-42
2020/12/26 04:46:40;;;;;;;7.53;6.73;;;0.60;99.90;;;;;;4935440;29;20244;-41
2020/12/26 04:49:08;;;;;;;7.53;6.47;;;0.60;99.90;;;;;;4935372;29;20599;-41
2020/12/26 04:51:39;;;;;;;8.20;6.50;;;0.60;99.90;;;;;;4935294;29;20690;-43
2020/12/26 04:54:14;;;;;;;7.10;6.00;;;0.60;99.90;;;;;;4935219;29;20307;-43
2020/12/26 04:56:44;;;;;;;7.50;6.30;;;0.60;99.90;;;;;;4935302;29;20299;-42
2020/12/26 04:59:12;;;;;;;8.13;6.90;;;0.60;99.90;;;;;;4934996;29;20223;-42
2020/12/26 05:01:41;;;;;;;7.60;6.60;;;0.50;99.90;;;;;;4935015;29;20212;-44
2020/12/26 05:04:10;;;;;;;7.27;6.37;;;0.40;99.90;;;;;;4935143;29;20550;-43
2020/12/26 05:06:48;;;;;;;7.03;6.33;;;0.40;99.90;;;;;;4934948;29;20219;-42
2020/12/26 05:09:16;;;;;;;7.27;6.57;;;0.30;99.90;;;;;;4935056;29;20655;-42
2020/12/26 05:11:54;;;;;;;8.50;7.40;;;0.30;99.90;;;;;;4934880;29;20754;-45
2020/12/26 05:14:22;;;;;;;8.03;7.23;;;0.30;99.90;;;;;;4934721;29;20275;-43
2020/12/26 05:16:50;;;;;;;7.07;6.37;;;0.30;99.90;;;;;;4934949;29;20208;-43
2020/12/26 05:19:17;;;;;;;7.80;6.60;;;0.30;99.90;;;;;;4935129;29;20232;-43
2020/12/26 05:21:46;;;;;;;8.97;6.90;;;0.30;99.90;;;;;;4934969;29;20208;-44
2020/12/26 05:24:14;;;;;;;6.97;6.27;;;0.30;99.90;;;;;;4934807;29;20291;-42
2020/12/26 05:26:43;;;;;;;7.40;6.40;;;0.20;99.90;;;;;;4934626;29;20218;-44
2020/12/26 05:29:12;;;;;;;7.33;6.63;;;0.20;99.90;;;;;;4934845;29;20246;-42
2020/12/26 05:31:47;;;;;;;14.40;11.17;;;0.30;99.90;;;;;;4934905;29;20291;-44
2020/12/26 05:34:14;;;;;;;7.70;7.00;;;0.30;99.90;;;;;;4934618;29;20306;-45
2020/12/26 05:36:42;;;;;;;9.53;8.00;;;0.40;99.90;;;;;;4934862;29;20633;-48
2020/12/26 05:39:11;;;;;;;9.53;7.97;;;0.40;99.90;;;;;;4934716;29;20255;-44
2020/12/26 05:41:41;;;;;;;9.50;7.03;;;0.40;99.90;;;;;;4938443;29;20211;-42
2020/12/26 05:44:08;;;;;;;7.00;6.30;;;0.40;99.90;;;;;;4940645;29;20211;-42
2020/12/26 05:46:36;;;;;;;9.27;6.97;;;0.30;99.90;;;;;;4941039;29;20302;-42
2020/12/26 05:49:26;;;;;;;8.73;7.40;;;0.30;99.90;;;;;;4940935;29;20304;-43
2020/12/26 05:51:57;;;;;;;9.70;7.30;;;0.20;99.90;;;;;;4940733;29;20251;-44
2020/12/26 05:54:26;;;;;;;7.07;6.33;;;0.10;99.90;;;;;;4940969;29;20731;-44
2020/12/26 05:57:10;;;;;;;8.87;7.53;;;0.20;99.90;;;;;;4941049;29;20243;-42
2020/12/26 05:59:38;;;;;;;8.07;7.10;;;0.20;99.90;;;;;;4940820;29;20299;-43
2020/12/26 06:02:21;;;;;;;7.70;6.90;;;0.20;99.90;;;;;;4940861;29;20222;-43
2020/12/26 06:04:56;;;;;;;8.37;7.40;;;0.10;99.90;;;;;;4941130;29;20239;-43
2020/12/26 06:07:26;;;;;;;8.87;6.50;;;0.10;99.90;;;;;;4940702;29;20706;-42
2020/12/26 06:09:54;;;;;;;8.50;6.70;;;0.10;99.90;;;;;;4940691;29;20303;-43
2020/12/26 06:12:22;;;;;;;9.50;7.50;;;0.00;99.90;;;;;;4940688;29;20303;-43
2020/12/26 06:14:50;;;;;;;8.30;6.97;;;0.00;99.90;;;;;;4940510;29;20243;-43
2020/12/26 06:17:23;;;;;;;8.30;6.63;;;0.00;99.90;;;;;;4940653;29;20203;-45
2020/12/26 06:19:58;;;;;;;7.43;6.67;;;0.00;99.90;;;;;;4940265;29;20223;-42
2020/12/26 06:22:25;;;;;;;9.50;7.03;;;0.00;99.90;;;;;;4940463;29;20239;-45
2020/12/26 06:24:53;;;;;;;9.13;7.23;;;0.00;99.90;;;;;;4940366;29;20215;-43
2020/12/26 06:27:24;;;;;;;9.13;6.77;;;0.00;99.90;;;;;;4940285;29;20232;-43
2020/12/26 06:29:52;;;;;;;9.73;7.40;;;0.00;99.90;;;;;;4940593;29;20212;-42
2020/12/26 06:32:21;;;;;;;9.00;7.70;;;0.00;99.90;;;;;;4940749;29;20302;-46
2020/12/26 06:34:48;;;;;;;11.10;7.83;;;0.00;99.90;;;;;;4940511;29;20306;-46
2020/12/26 06:37:17;;;;;;;9.83;7.47;;;0.00;99.90;;;;;;4940416;29;20216;-46
2020/12/26 06:39:44;;;;;;;11.47;8.00;;;0.00;99.90;;;;;;4940124;29;20306;-43
2020/12/26 06:42:15;;;;;;;9.03;7.27;;;-0.10;99.90;;;;;;4940605;29;20244;-44
2020/12/26 06:44:43;;;;;;;9.37;7.20;;;-0.10;99.90;;;;;;4940623;29;20299;-44
2020/12/26 06:47:36;;;;;;;9.67;8.00;;;-0.10;99.90;;;;;;4940311;29;20236;-43
2020/12/26 06:50:23;;;;;;;10.73;7.50;;;-0.10;99.90;;;;;;4940309;29;20693;-44
2020/12/26 06:52:51;;;;;;;7.77;6.97;;;-0.10;99.90;;;;;;4939055;29;20271;-43
2020/12/26 06:55:41;;;;;;;8.30;6.87;;;-0.10;99.90;;;;;;4937475;29;20227;-43
2020/12/26 06:58:09;;;;;;;8.20;6.23;;;-0.10;99.90;;;;;;4937451;29;20241;-42
2020/12/26 07:00:36;;;;;;;8.33;7.00;;;0.00;99.90;;;;;;4937264;29;20295;-43
2020/12/26 07:03:25;;;;;;;9.47;7.67;;;0.00;99.90;;;;;;4937396;29;20208;-42
2020/12/26 07:05:53;;;;;;;9.87;7.93;;;0.00;99.90;;;;;;4937245;29;20295;-45
2020/12/26 07:08:22;;;;;;;9.37;7.67;;;0.10;99.90;;;;;;4936930;29;20236;-42
2020/12/26 07:10:49;;;;;;;9.37;7.57;;;0.20;99.90;;;;;;4937040;29;20295;-42
2020/12/26 07:13:41;;;;;;;7.80;7.00;;;0.30;99.90;;;;;;4936868;29;20335;-43
2020/12/26 07:16:36;;;;;;;7.97;6.47;;;0.40;99.90;;;;;;4936784;29;20250;-45
2020/12/26 07:19:42;;;;;;;8.10;7.07;;;0.60;99.90;;;;;;4936568;29;20208;-42
2020/12/26 07:22:15;;;;;;;7.43;6.33;;;0.70;99.90;;;;;;4928341;29;20248;-43
2020/12/26 07:24:44;;;;;;;7.50;6.57;;;0.80;99.90;;;;;;4936398;29;20605;-42
2020/12/26 07:27:12;;;;;;;7.67;6.83;;;0.80;99.90;;;;;;4936515;29;20271;-41
2020/12/26 07:29:48;;;;;;;9.90;7.20;;;0.90;99.90;;;;;;4936581;29;20303;-46
2020/12/26 07:32:40;;;;;;;9.00;7.20;;;1.00;99.90;;;;;;4936701;29;20710;-44
2020/12/26 07:35:13;;;;;;;9.23;7.40;;;0.90;99.90;;;;;;4936628;29;20247;-47
2020/12/26 07:37:42;;;;;;;9.87;7.93;;;0.90;99.90;;;;;;4936470;29;20246;-46
2020/12/26 07:40:09;;;;;;;9.27;8.20;;;0.90;99.90;;;;;;4936503;29;20294;-48
2020/12/26 07:42:36;;;;;;;9.00;7.53;;;0.80;99.90;;;;;;4936464;29;20637;-46
2020/12/26 07:45:09;;;;;;;11.73;8.90;;;0.70;99.90;;;;;;4936428;29;20303;-46
2020/12/26 07:47:41;;;;;;;9.10;8.10;;;0.70;99.90;;;;;;4936374;29;20223;-49
2020/12/26 07:50:08;;;;;;;8.90;7.53;;;0.70;99.90;;;;;;4936457;29;20641;-47
2020/12/26 07:52:35;;;;;;;9.97;8.83;;;0.70;99.90;;;;;;4936307;29;20248;-45
2020/12/26 07:55:05;;;;;;;12.40;9.37;;;0.70;99.90;;;;;;4936203;29;20640;-47
2020/12/26 07:57:32;;;;;;;10.83;8.30;;;0.70;99.90;;;;;;4936327;29;20554;-45
2020/12/26 08:00:02;;;;;;;9.87;7.67;;;0.70;99.90;;;;;;4936119;29;20303;-47
2020/12/26 08:02:29;;;;;;;9.37;8.33;;;0.70;99.90;;;;;;4936194;29;20350;-41
2020/12/26 08:04:56;;;;;;;9.60;8.50;;;0.80;99.90;;;;;;4935526;29;20290;-42
2020/12/26 08:07:24;;;;;;;8.97;7.33;;;0.80;99.90;;;;;;4935569;29;20351;-41
2020/12/26 08:09:52;;;;;;;9.73;8.37;;;0.80;99.90;;;;;;4935962;29;20274;-45
2020/12/26 08:12:21;;;;;;;8.23;7.23;;;0.80;99.90;;;;;;4935619;29;20232;-50
2020/12/26 08:14:56;;;;;;;12.30;8.57;;;0.80;99.90;;;;;;4935580;29;20244;-43
2020/12/26 08:17:24;;;;;;;8.70;7.67;;;0.90;99.90;;;;;;4935993;29;20215;-46
2020/12/26 08:19:58;;;;;;;8.53;7.63;;;1.00;99.90;;;;;;4935940;29;20578;-43
2020/12/26 08:22:25;;;;;;;8.27;7.33;;;1.10;99.90;;;;;;4935847;29;20295;-44
2020/12/26 08:25:04;;;;;;;9.97;7.97;;;1.20;99.90;;;;;;4935904;29;20248;-43
2020/12/26 08:27:38;;;;;;;11.13;9.60;;;1.20;99.90;;;;;;4935570;29;20332;-43
2020/12/26 08:30:06;;;;;;;10.10;8.13;;;1.30;99.90;;;;;;4935456;29;20307;-44
2020/12/26 08:32:41;;;;;;;13.93;9.33;;;1.30;99.90;;;;;;4935820;29;20304;-43
2020/12/26 08:35:11;;;;;;;12.20;8.57;;;1.40;99.90;;;;;;4935673;29;20685;-43
2020/12/26 08:37:41;;;;;;;8.87;7.50;;;1.40;99.90;;;;;;4935558;29;20240;-43
2020/12/26 08:40:14;;;;;;;8.33;6.93;;;1.40;99.90;;;;;;4935304;29;20695;-43
2020/12/26 08:42:43;;;;;;;9.80;7.67;;;1.50;99.90;;;;;;4935397;29;20211;-43
2020/12/26 08:45:30;;;;;;;8.40;7.17;;;1.60;99.90;;;;;;4935405;29;20208;-43
2020/12/26 08:47:59;;;;;;;8.93;6.90;;;1.60;99.90;;;;;;4935312;29;20262;-43
2020/12/26 08:50:29;;;;;;;7.77;6.43;;;1.60;99.90;;;;;;4935412;29;20287;-43
2020/12/26 08:53:05;;;;;;;8.97;7.50;;;1.60;99.90;;;;;;4935203;29;20219;-43
2020/12/26 08:55:44;;;;;;;8.00;6.90;;;1.60;99.90;;;;;;4934741;29;20302;-45
2020/12/26 08:58:25;;;;;;;7.87;6.73;;;1.60;99.90;;;;;;4934733;29;20222;-44
2020/12/26 09:00:55;;;;;;;9.07;7.03;;;1.60;99.90;;;;;;4935072;29;20220;-43
2020/12/26 09:03:23;;;;;;;8.53;6.83;;;1.60;99.90;;;;;;4934732;29;20303;-43
2020/12/26 09:05:51;;;;;;;8.70;7.30;;;1.70;99.90;;;;;;4935174;29;20234;-45
2020/12/26 09:08:18;;;;;;;8.80;6.90;;;1.70;99.90;;;;;;4935151;29;20761;-45
2020/12/26 09:11:01;;;;;;;12.17;7.50;;;1.80;99.90;;;;;;4934988;29;20212;-43
2020/12/26 09:13:36;;;;;;;8.53;6.83;;;1.90;99.90;;;;;;4934619;29;20244;-42
2020/12/26 09:16:08;;;;;;;12.70;7.33;;;1.90;99.90;;;;;;4933652;29;20208;-42
2020/12/26 09:18:41;;;;;;;9.43;7.33;;;2.00;99.90;;;;;;4934468;29;20299;-42
2020/12/26 09:21:19;;;;;;;10.80;7.07;;;2.00;99.90;;;;;;4934863;29;20239;-43
2020/12/26 09:23:47;;;;;;;7.40;6.43;;;2.10;99.90;;;;;;4934640;29;20596;-43
2020/12/26 09:26:16;;;;;;;10.27;6.57;;;2.10;99.90;;;;;;4934684;29;20303;-42
2020/12/26 09:28:49;;;;;;;8.27;6.87;;;2.10;99.90;;;;;;4934641;29;20326;-42
2020/12/26 09:31:17;;;;;;;8.40;6.50;;;2.10;99.90;;;;;;4934951;29;20222;-43
2020/12/26 09:33:45;;;;;;;8.03;7.00;;;2.00;99.90;;;;;;4935113;29;20298;-43
2020/12/26 09:36:13;;;;;;;7.53;6.23;;;2.00;99.90;;;;;;4934689;29;20267;-43
2020/12/26 09:38:40;;;;;;;9.23;6.77;;;2.00;99.90;;;;;;4934378;29;20287;-43
2020/12/26 09:41:16;;;;;;;6.90;5.40;;;2.10;99.90;;;;;;4934510;29;20215;-43
2020/12/26 09:43:45;;;;;;;9.87;8.00;;;2.20;99.90;;;;;;4934643;29;20298;-42
2020/12/26 09:46:12;;;;;;;16.93;10.73;;;2.20;99.90;;;;;;4926802;29;20306;-42
2020/12/26 09:48:44;;;;;;;12.27;8.20;;;2.20;99.90;;;;;;4934450;29;20231;-43
2020/12/26 09:51:15;;;;;;;6.40;5.77;;;2.20;99.90;;;;;;4934452;29;20365;-44
2020/12/26 09:53:43;;;;;;;9.00;6.67;;;2.30;99.90;;;;;;4934678;29;20311;-43
2020/12/26 09:56:11;;;;;;;11.35;7.45;;;2.20;99.90;;;;;;4934744;29;20303;-43
2020/12/26 09:58:39;;;;;;;9.10;6.70;;;2.20;99.90;;;;;;4934459;29;20303;-43
2020/12/26 10:01:07;;;;;;;5.60;5.00;;;2.20;99.90;;;;;;4934499;29;20218;-42
2020/12/26 10:03:35;;;;;;;7.00;5.40;;;2.30;99.90;;;;;;4934372;29;20219;-42
2020/12/26 10:06:02;;;;;;;8.60;4.70;;;2.30;99.90;;;;;;4934325;29;20251;-44
2020/12/26 10:08:29;;;;;;;6.63;4.60;;;2.30;99.90;;;;;;4934530;29;20246;-42
2020/12/26 10:10:57;;;;;;;6.87;4.43;;;2.30;99.90;;;;;;4934569;29;20236;-42
2020/12/26 10:13:24;;;;;;;7.13;4.57;;;2.40;99.90;;;;;;4934180;29;20746;-42
2020/12/26 10:15:52;;;;;;;6.27;5.27;;;2.40;99.90;;;;;;4934451;29;20216;-42
2020/12/26 10:18:20;;;;;;;5.70;5.00;;;2.40;99.90;;;;;;4934323;29;20642;-42
2020/12/26 10:20:47;;;;;;;11.03;7.00;;;2.50;99.90;;;;;;4937972;29;20328;-48
2020/12/26 10:23:15;;;;;;;11.60;8.33;;;2.50;99.90;;;;;;4945329;29;20271;-45
2020/12/26 10:25:49;;;;;;;9.77;6.50;;;2.60;99.90;;;;;;4934508;29;20212;-44
2020/12/26 10:28:16;;;;;;;10.67;6.07;;;2.70;99.90;;;;;;4936511;29;20235;-43
2020/12/26 10:30:44;;;;;;;13.10;7.47;;;2.80;99.90;;;;;;4937923;29;20212;-43
2020/12/26 10:33:11;;;;;;;9.00;6.17;;;2.90;99.90;;;;;;4937916;29;20212;-46
2020/12/26 10:35:39;;;;;;;7.57;4.77;;;3.00;99.90;;;;;;4937815;29;20243;-43
2020/12/26 10:38:06;;;;;;;9.37;6.03;;;3.00;99.90;;;;;;4937892;29;20240;-44
2020/12/26 10:40:33;;;;;;;8.53;6.10;;;3.00;99.90;;;;;;4937719;29;20212;-43
2020/12/26 10:43:00;;;;;;;8.83;4.93;;;3.10;99.90;;;;;;4937418;29;20619;-42
2020/12/26 10:45:28;;;;;;;8.77;5.77;;;3.00;99.90;;;;;;4937634;29;20234;-46
2020/12/26 10:47:55;;;;;;;6.10;4.83;;;3.10;99.90;;;;;;4937796;29;20259;-45
2020/12/26 10:50:22;;;;;;;7.53;5.70;;;3.10;99.90;;;;;;4937532;29;20212;-45
2020/12/26 10:52:50;;;;;;;6.97;4.17;;;3.10;99.90;;;;;;4937612;29;20255;-42
2020/12/26 10:55:18;;;;;;;7.97;5.18;;;3.20;99.90;;;;;;4937599;29;20222;-43
2020/12/26 10:57:45;;;;;;;5.60;4.77;;;3.20;99.90;;;;;;4937481;29;20337;-45
2020/12/26 11:00:13;;;;;;;5.13;3.80;;;3.30;99.90;;;;;;4937352;29;20675;-46
2020/12/26 11:02:41;;;;;;;4.33;3.50;;;3.30;99.90;;;;;;4937277;29;20719;-45
2020/12/26 11:05:08;;;;;;;10.10;5.60;;;3.30;99.90;;;;;;4937118;29;20691;-43
2020/12/26 11:07:36;;;;;;;6.32;3.50;;;3.30;99.90;;;;;;4937361;29;20624;-44
2020/12/26 11:10:04;;;;;;;5.70;4.53;;;3.30;99.90;;;;;;4937230;29;20228;-45
2020/12/26 11:12:31;;;;;;;4.90;3.40;;;3.30;99.80;;;;;;4936995;29;20216;-45
2020/12/26 11:14:58;;;;;;;4.10;3.70;;;3.30;99.50;;;;;;4937040;29;20546;-43
2020/12/26 11:17:25;;;;;;;4.07;3.13;;;3.30;99.70;;;;;;4937124;29;20250;-46
2020/12/26 11:19:52;;;;;;;4.80;2.88;;;3.30;99.30;;;;;;4937033;29;20215;-44
2020/12/26 11:22:20;;;;;;;4.60;3.20;;;3.30;99.30;;;;;;4937267;29;20388;-47
2020/12/26 11:24:47;;;;;;;5.07;3.27;;;3.40;99.20;;;;;;4936952;29;20220;-44
2020/12/26 11:27:15;;;;;;;3.70;3.37;;;3.50;98.90;;;;;;4936717;29;20717;-45
2020/12/26 11:29:42;;;;;;;4.65;2.95;;;3.50;98.90;;;;;;4936945;29;20319;-40
2020/12/26 11:32:09;;;;;;;6.77;4.27;;;3.60;98.80;;;;;;4936883;29;20246;-46
2020/12/26 11:34:36;;;;;;;5.60;3.03;;;3.70;98.80;;;;;;4936701;29;20375;-44
2020/12/26 11:37:05;;;;;;;4.00;3.10;;;3.70;98.60;;;;;;4936703;29;20208;-47
2020/12/26 11:39:32;;;;;;;4.32;3.88;;;3.70;98.60;;;;;;4935704;29;20211;-44
2020/12/26 11:41:59;;;;;;;4.03;3.17;;;3.70;98.80;;;;;;4936565;29;20236;-43
2020/12/26 11:44:27;;;;;;;3.40;3.05;;;3.70;98.80;;;;;;4936853;29;20302;-44
2020/12/26 11:46:58;;;;;;;6.07;3.53;;;3.70;98.30;;;;;;4936467;29;20215;-44
2020/12/26 11:49:25;;;;;;;5.47;4.00;;;3.70;98.50;;;;;;4936774;29;20326;-43
2020/12/26 11:51:52;;;;;;;4.93;3.50;;;3.70;98.40;;;;;;4936526;29;20244;-42
2020/12/26 11:54:21;;;;;;;6.83;4.73;;;3.60;98.50;;;;;;4936330;29;20627;-43
2020/12/26 11:56:50;;;;;;;6.90;5.45;;;3.60;98.50;;;;;;4936405;29;20219;-43
2020/12/26 11:59:17;;;;;;;7.00;4.90;;;3.50;98.40;;;;;;4936203;29;20654;-43
2020/12/26 12:01:45;;;;;;;5.97;4.47;;;3.50;98.50;;;;;;4936152;29;20212;-45
2020/12/26 12:04:12;;;;;;;5.20;4.70;;;3.40;98.60;;;;;;4936208;29;20208;-42
2020/12/26 12:06:39;;;;;;;4.87;4.33;;;3.40;98.80;;;;;;4936069;29;20235;-44
2020/12/26 12:09:06;;;;;;;6.13;5.53;;;3.40;98.70;;;;;;4936168;29;20319;-44
2020/12/26 12:11:34;;;;;;;6.47;5.00;;;3.40;98.90;;;;;;4936181;29;20237;-43
2020/12/26 12:14:01;;;;;;;6.78;5.95;;;3.50;98.80;;;;;;4935705;29;20742;-43
2020/12/26 12:16:28;;;;;;;6.63;5.33;;;3.60;98.50;;;;;;4936021;29;20212;-42
2020/12/26 12:18:56;;;;;;;7.33;4.63;;;3.60;98.80;;;;;;4936024;29;20204;-45
2020/12/26 12:21:23;;;;;;;6.72;4.97;;;3.70;98.50;;;;;;4935755;29;20219;-43
2020/12/26 12:23:50;;;;;;;6.87;4.80;;;3.60;98.40;;;;;;4935662;29;20702;-44
2020/12/26 12:26:22;;;;;;;5.77;4.60;;;3.60;98.40;;;;;;4936049;29;20303;-44
2020/12/26 12:28:53;;;;;;;7.23;4.93;;;3.60;97.80;;;;;;4935703;29;20314;-45
2020/12/26 12:31:20;;;;;;;6.43;5.33;;;3.60;98.00;;;;;;4940201;29;20239;-45
2020/12/26 12:33:48;;;;;;;5.47;4.20;;;3.50;98.00;;;;;;4954778;29;20670;-45
2020/12/26 12:36:16;;;;;;;4.87;4.37;;;3.40;97.70;;;;;;4954910;28;20215;-46
2020/12/26 12:38:43;;;;;;;4.83;4.37;;;3.30;98.00;;;;;;4954738;29;20231;-43
2020/12/26 12:41:10;;;;;;;5.73;5.10;;;3.30;98.00;;;;;;4954513;29;20249;-45
2020/12/26 12:43:37;;;;;;;6.47;4.60;;;3.20;98.20;;;;;;4954580;29;20290;-46
2020/12/26 12:46:06;;;;;;;5.27;4.10;;;3.20;98.30;;;;;;4954571;29;20270;-44
2020/12/26 12:48:33;;;;;;;5.23;3.80;;;3.10;98.20;;;;;;4954456;29;20322;-45
2020/12/26 12:51:00;;;;;;;7.22;6.13;;;3.10;98.10;;;;;;4954593;28;20215;-44
2020/12/26 12:53:28;;;;;;;5.90;4.57;;;3.10;98.20;;;;;;4954732;28;20250;-44
2020/12/26 12:55:55;;;;;;;7.13;5.27;;;3.10;98.10;;;;;;4954575;29;20285;-44
2020/12/26 12:58:22;;;;;;;5.87;4.73;;;3.20;98.00;;;;;;4954435;29;20226;-44
2020/12/26 13:00:49;;;;;;;6.23;4.67;;;3.30;97.80;;;;;;4954220;29;20251;-45
2020/12/26 13:03:16;;;;;;;4.97;4.37;;;3.30;97.60;;;;;;4954442;28;20255;-43
2020/12/26 13:05:43;;;;;;;6.20;4.13;;;3.40;97.70;;;;;;4953987;29;20254;-47